FCBB/BZV METAR and TAF weather

Enter ICAO airport designator
Station Type Date Time Source
FCBB METAR 2022/01/25 05:00 UTC NOAA

FCBB 250500Z 23006KT 210V270 6000 -RA BKN020 FEW028CB 22/21 Q1012 NOSIG


Station Type Date Time Source
FCBB Decoded METAR 2022/01/25 05:00 UTC NOAA

Brazzaville / Maya-Maya, Congo, Republic of the (FCBB) 04-15S 015-15E 316M
Jan 25, 2022 - 12:00 AM EST / 2022.01.25 0500 UTC
Wind: from the SW (230 degrees) at 7 MPH (6 KT) (direction variable):0
Visibility: 3 mile(s):0
Sky conditions: mostly cloudy
Weather: light rain; Cumulonimbus clouds observed
Temperature: 71 F (22 C)
Dew Point: 69 F (21 C)
Relative Humidity: 94%
Pressure (altimeter): 29.88 in. Hg (1012 hPa)
ob: FCBB 250500Z 23006KT 210V270 6000 -RA BKN020 FEW028CB 22/21 Q1012 NOSIG
cycle: 5

Station Type Date Time Source
FCBB TAF 2022/01/24 18:58 UTC NOAA

TAF FCBB 241700Z 2418/2524 26004KT 9000 TS FEW020 FEW030CB
BECMG 2418/2420 NSW PROB30
TEMPO 2421/2500 -TSRA
BECMG 2500/2502 SCT018
BECMG 2512/2514 FEW020 FEW030CB PROB40
TEMPO 2514/2518 -TSRA

Example: see airport list